Latest Weather Observations for Gympie

IDQ60901

Issued at 9:21 am EST Thursday 25 August 2016 (issued every 10 minutes, with the page automatically refreshed every 10 minutes)

About weather observations | Map of Brisbane area stations | Latest observations for Brisbane area | Other Formats
Station Details ID: 040093 Name: GYMPIE Lat: -26.18 Lon: 152.64 Height: 64.5 m
Data from the previous 72 hours. | See also: Recent months at Gympie
Date/Time
EST
Temp
°C
App
Temp
°C
Dew
Point
°C
Rel
Hum
%
Delta-T
°C
Wind Press
QNH
hPa
Press
MSL
hPa
Rain since
9am
mm
Dir  Spd
km/h
Gust
km/h
Spd
kts
Gust
kts
25/09:00am 15.7 12.5 8.4 62 3.7 W 15 26 8 14 1012.8 1012.7 1.2
25/08:30am 15.7 12.1 8.4 62 3.7 WSW 17 28 9 15 1013.1 1013.0 1.2
25/08:00am 15.9 12.8 8.9 63 3.6 WSW 15 24 8 13 1012.2 1012.1 1.2
25/07:30am 16.2 14.5 9.8 66 3.4 W 9 17 5 9 1012.3 1012.2 1.2
25/07:00am 16.4 14.4 10.0 66 3.4 W 11 24 6 13 1012.7 1012.6 1.2
25/06:51am 16.4 14.8 10.3 67 3.2 WSW 9 15 5 8 1012.8 1012.7 1.2
25/06:30am 16.6 15.3 10.0 65 3.5 WSW 7 13 4 7 1010.6 1010.5 1.2
25/06:00am 16.6 15.7 10.7 68 3.2 SW 6 13 3 7 1011.1 1011.0 1.2
25/05:30am 17.1 15.6 10.7 66 3.4 SW 9 15 5 8 1010.1 1010.0 1.2
25/05:00am 17.6 16.7 11.2 66 3.5 WSW 7 17 4 9 1009.8 1009.7 1.2
25/04:30am 17.8 17.6 13.5 76 2.4 W 7 15 4 8 1010.6 1010.5 1.2
25/04:00am 18.2 18.1 13.9 76 2.5 NW 7 11 4 6 1009.1 1009.0 1.2
25/03:30am 18.1 18.2 14.4 79 2.1 WNW 7 11 4 6 1009.3 1009.2 1.2
25/03:00am 18.4 18.4 15.1 81 1.9 NW 9 13 5 7 1009.4 1009.3 1.2
25/02:30am 18.6 18.2 15.3 81 1.9 NNW 11 20 6 11 1009.0 1008.9 1.2
25/02:00am 18.7 17.6 15.2 80 2.1 NNW 15 28 8 15 1009.7 1009.6 1.2
25/01:30am 18.8 19.1 15.1 79 2.2 NNW 7 13 4 7 1008.1 1008.0 1.2
25/01:00am 19.0 18.4 14.7 76 2.5 NNW 11 19 6 10 1009.0 1008.9 1.2
25/12:30am 19.0 18.1 14.9 77 2.4 NW 13 28 7 15 1009.7 1009.6 1.2
25/12:00am 19.0 18.6 15.1 78 2.3 NNW 11 19 6 10 1009.3 1009.2 1.2
 
Date/Time
EST
Temp
°C
App
Temp
°C
Dew
Point
°C
Rel
Hum
%
Delta-T
°C
Wind Press
QNH
hPa
Press
MSL
hPa
Rain since
9am
mm
Dir  Spd
km/h
Gust
km/h
Spd
kts
Gust
kts
24/11:30pm 19.2 18.5 15.3 78 2.3 NNW 13 17 7 9 1009.6 1009.5 1.2
24/11:00pm 19.0 19.8 15.9 82 1.8 NW 6 15 3 8 1008.9 1008.8 1.2
24/10:30pm 18.7 19.6 16.1 85 1.6 NNW 6 9 3 5 1008.9 1008.8 1.2
24/10:00pm 18.8 19.6 15.9 83 1.7 NNW 6 9 3 5 1009.0 1008.9 1.2
24/09:30pm 18.9 19.9 16.3 85 1.6 NNW 6 9 3 5 1009.2 1009.1 1.2
24/09:00pm 18.6 19.9 17.1 91 0.9 N 6 7 3 4 1009.3 1009.2 1.2
24/08:30pm 18.8 20.5 17.1 90 1.0 NNE 4 6 2 3 1009.1 1009.0 1.2
24/08:00pm 19.0 20.4 17.3 90 1.0 NW 6 7 3 4 1009.5 1009.4 1.2
24/07:30pm 19.4 21.8 17.0 86 1.5 CALM 0 4 0 2 1008.5 1008.4 1.2
24/07:00pm 19.9 21.3 17.3 85 1.6 NNE 6 7 3 4 1008.6 1008.5 1.2
24/06:30pm 19.9 21.6 17.1 84 1.7 NNE 4 6 2 3 1008.8 1008.7 1.2
24/06:00pm 20.1 21.3 16.9 82 1.9 N 6 9 3 5 1008.8 1008.7 1.2
24/05:30pm 20.3 21.7 16.5 79 2.3 NW 4 6 2 3 1008.8 1008.7 1.2
24/05:00pm 20.7 21.1 16.3 76 2.7 NW 9 13 5 7 1008.2 1008.1 1.2
24/04:30pm 20.8 22.2 16.4 76 2.7 WNW 4 9 2 5 1007.5 1007.4 1.2
24/04:00pm 20.8 21.2 16.4 76 2.7 NW 9 15 5 8 1007.4 1007.3 1.2
24/03:30pm 20.7 21.8 16.5 77 2.5 WNW 6 9 3 5 1007.2 1007.1 1.2
24/03:00pm 20.2 20.5 16.0 77 2.5 WNW 9 15 5 8 1007.3 1007.2 1.2
24/02:30pm 20.1 21.3 16.9 82 1.9 NW 6 11 3 6 1007.3 1007.2 1.2
24/02:00pm 19.4 19.9 17.5 89 1.2 WNW 11 20 6 11 1007.3 1007.2 1.2
24/01:30pm 19.6 19.8 17.6 88 1.2 WSW 13 28 7 15 1007.6 1007.5 1.0
24/01:00pm 24.3 23.4 16.8 63 4.6 NW 17 26 9 14 1006.0 1006.0 0.0
24/12:30pm 25.6 23.6 15.6 54 6.1 NW 20 33 11 18 1005.9 1005.9 0.0
24/12:00pm 26.3 24.9 16.5 54 6.1 NW 19 37 10 20 1006.4 1006.4 0.0
24/11:30am 25.4 24.2 17.1 60 5.2 NW 19 33 10 18 1007.2 1007.1 0.0
24/11:00am 24.9 23.7 17.1 62 4.9 NNW 19 37 10 20 1007.8 1007.7 0.0
24/10:30am 25.1 24.2 17.8 64 4.6 NNW 19 30 10 16 1008.3 1008.2 0.0
24/10:00am 24.2 24.0 18.6 71 3.6 NNW 17 30 9 16 1008.7 1008.6 0.0
24/09:30am 23.0 22.5 18.7 77 2.7 NNW 19 30 10 16 1009.2 1009.1 0.0
24/09:00am 22.9 23.6 18.9 78 2.5 N 13 24 7 13 1009.3 1009.2 0.8
24/08:30am 22.8 22.4 19.0 79 2.4 NNW 19 32 10 17 1009.4 1009.3 0.8
24/08:00am 22.7 22.7 18.9 79 2.4 N 17 32 9 17 1009.3 1009.2 0.8
24/07:30am 22.0 23.4 19.5 86 1.6 NNW 11 24 6 13 1009.3 1009.2 0.8
24/07:00am 20.8 23.2 19.6 93 0.8 NNW 6 9 3 5 1009.3 1009.2 0.8
24/06:30am 20.4 23.1 19.4 94 0.6 N 4 6 2 3 1008.7 1008.6 0.8
24/06:00am 20.4 22.5 19.4 94 0.6 N 7 9 4 5 1008.5 1008.4 0.8
24/05:30am 20.2 22.5 19.5 96 0.4 N 6 9 3 5 1008.5 1008.4 0.8
24/05:00am 20.2 23.0 19.7 97 0.3 NNW 4 7 2 4 1008.4 1008.3 0.8
24/04:30am 20.2 23.0 19.7 97 0.3 N 4 6 2 3 1008.0 1007.9 0.8
24/04:00am 20.2 23.0 19.7 97 0.3 N 4 9 2 5 1008.0 1007.9 0.8
24/03:30am 20.3 22.7 19.6 96 0.4 N 6 9 3 5 1008.8 1008.7 0.8
24/03:00am 20.1 22.5 19.6 97 0.3 N 6 7 3 4 1009.1 1009.0 0.6
24/02:30am 19.9 22.6 19.4 97 0.3 NNE 4 6 2 3 1009.3 1009.2 0.6
24/02:00am 19.8 23.1 19.1 96 0.4 CALM 0 0 0 0 1009.8 1009.7 0.6
24/01:30am 19.9 23.0 19.4 97 0.3 NNE 2 4 1 2 1010.3 1010.2 0.6
24/01:00am 19.9 22.9 19.2 96 0.4 NNE 2 4 1 2 1010.8 1010.7 0.6
24/12:30am 20.0 22.4 18.8 93 0.8 NNE 4 7 2 4 1010.9 1010.8 0.0
24/12:00am 20.1 22.4 18.6 91 0.9 NE 4 6 2 3 1011.3 1011.2 0.0
 
Date/Time
EST
Temp
°C
App
Temp
°C
Dew
Point
°C
Rel
Hum
%
Delta-T
°C
Wind Press
QNH
hPa
Press
MSL
hPa
Rain since
9am
mm
Dir  Spd
km/h
Gust
km/h
Spd
kts
Gust
kts
23/11:30pm 20.2 22.2 18.7 91 0.9 N 6 11 3 6 1012.0 1011.9 0.0
23/11:00pm 20.3 22.5 18.4 89 1.2 N 4 7 2 4 1012.1 1012.0 0.0
23/10:30pm 20.1 22.9 17.9 87 1.4 CALM 0 4 0 2 1012.4 1012.3 0.0
23/10:00pm 20.4 22.5 18.0 86 1.5 NNE 4 7 2 4 1012.7 1012.6 0.0
23/09:30pm 20.5 21.9 17.9 85 1.6 N 7 13 4 7 1013.1 1013.0 0.0
23/09:00pm 20.6 22.3 18.0 85 1.6 N 6 7 3 4 1013.4 1013.3 0.0
23/08:30pm 20.7 22.9 18.3 86 1.5 N 4 6 2 3 1013.3 1013.2 0.0
23/08:00pm 20.9 22.7 18.3 85 1.6 N 6 9 3 5 1013.5 1013.4 0.0
23/07:30pm 21.3 23.1 18.3 83 1.9 NNE 6 11 3 6 1013.1 1013.0 0.0
23/07:00pm 21.4 23.0 18.2 82 2.0 NNE 7 17 4 9 1012.9 1012.8 0.0
23/06:30pm 21.5 23.0 18.1 81 2.1 NNE 7 13 4 7 1012.6 1012.5 0.0
23/06:00pm 21.9 23.3 17.9 78 2.5 NNE 7 11 4 6 1012.3 1012.2 0.0
23/05:30pm 22.6 22.6 17.3 72 3.3 NNE 13 24 7 13 1012.0 1011.9 0.0
23/05:00pm 24.4 24.7 16.1 60 5.1 NE 9 20 5 11 1011.6 1011.5 0.0
23/04:30pm 25.4 24.9 13.9 49 6.8 NNE 9 15 5 8 1011.3 1011.2 0.0
23/04:00pm 25.7 26.0 13.5 46 7.2 N 4 7 2 4 1011.2 1011.1 0.0
23/03:30pm 25.4 25.2 13.6 48 6.9 N 7 11 4 6 1011.2 1011.1 0.0
23/03:00pm 25.7 24.7 13.5 46 7.2 N 11 19 6 10 1011.3 1011.2 0.0
23/02:30pm 26.3 26.2 13.8 46 7.4 N 7 15 4 8 1011.2 1011.1 0.0
23/02:00pm 26.3 26.5 14.1 47 7.3 NNW 6 13 3 7 1011.8 1011.7 0.0
23/01:30pm 26.1 25.9 14.6 49 6.9 N 9 19 5 10 1012.1 1012.0 0.0
23/01:00pm 25.4 25.5 14.5 51 6.5 NW 7 17 4 9 1012.3 1012.2 0.0
23/12:30pm 25.3 25.2 15.0 53 6.2 NW 9 19 5 10 1012.6 1012.5 0.0
23/12:00pm 24.9 24.5 15.2 54 5.8 N 11 19 6 10 1013.4 1013.3 0.0
23/11:30am 24.1 21.8 14.2 54 5.9 NNW 19 28 10 15 1014.1 1014.0 0.0
23/11:00am 23.0 22.0 15.6 63 4.5 NNW 15 24 8 13 1014.5 1014.4 0.0
23/10:30am 22.2 21.4 16.2 69 3.6 NW 15 24 8 13 1014.9 1014.8 0.0
23/10:00am 22.1 22.3 16.8 72 3.2 NNW 11 19 6 10 1015.2 1015.1 0.0
23/09:30am 20.2 22.0 17.4 84 1.7 WSW 4 6 2 3 1015.5 1015.4 0.0
23/09:00am 18.7 20.1 17.4 92 0.8 WSW 6 7 3 4 1015.4 1015.3 0.0
23/08:30am 16.5 18.6 16.3 99 0.1 CALM 0 0 0 0 1015.0 1014.9 0.0
23/08:00am 14.6 15.3 14.4 99 0.1 SW 4 6 2 3 1014.7 1014.6 0.0
23/07:30am 13.7 14.8 13.5 99 0.1 CALM 0 0 0 0 1014.5 1014.4 0.0
23/07:00am 12.5 13.2 12.3 99 0.1 CALM 0 0 0 0 1014.9 1014.8 0.0
23/06:30am 12.1 12.7 11.9 99 0.1 CALM 0 0 0 0 1015.3 1015.2 0.0
23/06:00am 12.1 12.7 11.9 99 0.1 CALM 0 0 0 0 1015.4 1015.3 0.0
23/05:30am 12.1 12.7 11.9 99 0.1 CALM 0 0 0 0 1015.2 1015.1 0.0
23/05:00am 12.3 13.0 12.1 99 0.1 CALM 0 0 0 0 1015.0 1014.9 0.0
23/04:30am 12.2 12.8 12.0 99 0.1 CALM 0 0 0 0 1014.8 1014.7 0.0
23/04:00am 12.0 12.6 11.8 99 0.1 CALM 0 0 0 0 1014.8 1014.7 0.0
23/03:30am 12.2 12.8 12.0 99 0.1 CALM 0 0 0 0 1014.8 1014.7 0.0
23/03:00am 12.5 13.2 12.3 99 0.1 CALM 0 0 0 0 1014.9 1014.8 0.0
23/02:30am 12.0 12.6 11.8 99 0.1 CALM 0 0 0 0 1015.0 1014.9 0.0
23/02:00am 12.2 12.8 12.0 99 0.1 CALM 0 0 0 0 1015.1 1015.0 0.0
23/01:30am 12.3 13.0 12.1 99 0.1 CALM 0 0 0 0 1015.3 1015.2 0.0
23/01:00am 12.5 12.5 12.3 99 0.1 N 4 4 2 2 1015.6 1015.5 0.0
23/12:30am 12.4 13.1 12.1 98 0.2 CALM 0 0 0 0 1016.1 1016.0 0.0
23/12:00am 13.0 13.9 12.8 99 0.1 CALM 0 0 0 0 1016.0 1015.9 0.0
 
Date/Time
EST
Temp
°C
App
Temp
°C
Dew
Point
°C
Rel
Hum
%
Delta-T
°C
Wind Press
QNH
hPa
Press
MSL
hPa
Rain since
9am
mm
Dir  Spd
km/h
Gust
km/h
Spd
kts
Gust
kts
22/11:30pm 13.1 13.9 12.6 97 0.3 CALM 0 0 0 0 1016.1 1016.0 0.0
22/11:00pm 13.6 14.6 13.1 97 0.3 CALM 0 0 0 0 1016.0 1015.9 0.0
22/10:30pm 14.1 15.3 13.8 98 0.2 CALM 0 0 0 0 1016.1 1016.0 0.0
22/10:00pm 14.0 15.0 13.1 94 0.5 CALM 0 0 0 0 1015.9 1015.8 0.0
22/09:30pm 15.0 16.3 14.2 95 0.5 CALM 0 0 0 0 1015.9 1015.8 0.0
22/09:00pm 15.4 16.8 14.4 94 0.6 CALM 0 0 0 0 1015.9 1015.8 0.0
22/08:30pm 16.0 17.5 14.7 92 0.7 CALM 0 0 0 0 1015.9 1015.8 0.0
22/08:00pm 16.4 18.0 14.9 91 0.9 CALM 0 0 0 0 1015.7 1015.6 0.0
22/07:30pm 16.9 18.6 15.1 89 1.0 CALM 0 0 0 0 1015.2 1015.1 0.0
22/07:00pm 17.9 19.3 15.3 85 1.5 NNW 2 4 1 2 1015.1 1015.0 0.0
22/06:30pm 18.7 19.9 15.9 84 1.7 NNE 4 6 2 3 1014.8 1014.7 0.0
22/06:00pm 19.3 20.2 16.0 81 2.0 NE 6 9 3 5 1014.7 1014.6 0.0
22/05:30pm 19.9 20.6 15.7 77 2.5 NE 6 13 3 7 1014.6 1014.5 0.0
22/05:00pm 20.7 21.6 16.5 77 2.5 NE 7 15 4 8 1014.6 1014.5 0.0
22/04:30pm 21.0 21.9 16.6 76 2.7 ENE 7 13 4 7 1014.5 1014.4 0.0
22/04:00pm 20.4 20.2 15.8 75 2.7 NE 11 20 6 11 1014.4 1014.3 0.0
22/03:30pm 23.6 22.8 14.0 55 5.6 NE 11 22 6 12 1014.0 1013.9 0.0
22/03:00pm 24.1 23.8 13.3 51 6.3 NE 7 19 4 10 1013.9 1013.8 0.0
22/02:30pm 24.6 23.3 12.5 46 7.0 NE 11 19 6 10 1014.2 1014.1 0.0
22/02:00pm 24.7 23.6 12.0 45 7.3 NE 9 17 5 9 1014.4 1014.3 0.0
22/01:30pm 24.6 23.9 11.9 45 7.2 ENE 7 13 4 7 1014.8 1014.7 0.0
22/01:00pm 24.4 23.4 12.4 47 6.9 NNE 9 19 5 10 1015.3 1015.2 0.0
22/12:30pm 23.4 22.1 11.1 46 6.9 NNE 9 19 5 10 1015.6 1015.5 0.0
22/12:00pm 24.3 23.4 12.6 48 6.7 NE 9 17 5 9 1016.1 1016.0 0.0
22/11:30am 23.1 22.1 12.4 51 6.1 NE 9 19 5 10 1016.5 1016.5 0.0
22/11:00am 23.2 23.3 14.5 58 5.1 NNE 7 11 4 6 1017.0 1017.0 0.0
22/10:30am 21.7 21.8 14.4 63 4.3 NE 7 11 4 6 1017.3 1017.3 0.0
22/10:00am 20.7 21.7 15.3 71 3.2 SE 4 7 2 4 1017.8 1017.8 0.0
22/09:30am 18.9 19.6 14.4 75 2.6 SSE 4 6 2 3 1018.0 1018.0 0.0

Latest Capital City Observations: Canberra | Sydney | Melbourne | Brisbane | Adelaide | Perth | Hobart | Darwin

Other Formats:

Comma delimited format used in spreadsheet applications
http://www.bom.gov.au/fwo/IDQ60901/IDQ60901.94566.axf

JavaScript Object Notation format (JSON) in row-major order
http://www.bom.gov.au/fwo/IDQ60901/IDQ60901.94566.json